createdAt,value
2022-12-13T00:01:12.135Z,25.70
2022-12-13T00:03:38.698Z,25.73
2022-12-13T00:06:09.725Z,23.33
2022-12-13T00:08:37.955Z,25.03
2022-12-13T00:11:06.881Z,25.60
2022-12-13T00:13:33.978Z,26.33
2022-12-13T00:16:03.317Z,25.97
2022-12-13T00:18:30.129Z,25.20
2022-12-13T00:20:57.802Z,26.17
2022-12-13T00:23:24.414Z,25.10
2022-12-13T00:25:51.020Z,24.03
2022-12-13T00:28:17.553Z,25.57
2022-12-13T00:30:44.221Z,26.40
2022-12-13T00:33:10.661Z,24.87
2022-12-13T00:35:41.223Z,27.77
2022-12-13T00:38:09.536Z,24.77
2022-12-13T00:40:37.776Z,26.93
2022-12-13T00:43:04.169Z,27.20
2022-12-13T00:45:30.530Z,29.70
2022-12-13T00:47:56.979Z,30.60
2022-12-13T00:50:23.544Z,30.53
2022-12-13T00:52:50.119Z,29.60
2022-12-13T00:55:16.909Z,30.87
2022-12-13T00:57:43.464Z,27.83
2022-12-13T01:00:10.672Z,26.27
2022-12-13T01:02:37.269Z,26.60
2022-12-13T01:05:04.119Z,25.60
2022-12-13T01:07:30.770Z,25.80
2022-12-13T01:09:58.403Z,28.47
2022-12-13T01:12:24.798Z,27.00
2022-12-13T01:14:55.906Z,26.43
2022-12-13T01:17:22.672Z,27.67
2022-12-13T01:19:49.013Z,24.87
2022-12-13T01:22:15.435Z,25.57
2022-12-13T01:24:42.114Z,26.10
2022-12-13T01:27:08.919Z,28.13
2022-12-13T01:29:35.630Z,26.13
2022-12-13T01:32:02.216Z,27.60
2022-12-13T01:34:28.687Z,27.30
2022-12-13T01:36:58.564Z,29.50
2022-12-13T01:39:26.702Z,30.40
2022-12-13T01:41:55.580Z,30.27
2022-12-13T01:44:52.736Z,27.73
2022-12-13T01:47:25.432Z,29.40
2022-12-13T01:49:54.658Z,30.27
2022-12-13T01:52:21.602Z,30.10
2022-12-13T01:54:51.116Z,29.90
2022-12-13T01:57:19.935Z,27.03
2022-12-13T01:59:48.175Z,28.60
2022-12-13T02:02:15.406Z,28.53
2022-12-13T02:04:55.461Z,26.77
2022-12-13T02:07:26.240Z,24.90
2022-12-13T02:12:29.621Z,24.57
2022-12-13T02:15:01.586Z,24.17
2022-12-13T02:17:52.934Z,26.13
2022-12-13T02:20:37.397Z,26.37
2022-12-13T02:23:41.183Z,25.00
2022-12-13T02:26:07.742Z,23.23
2022-12-13T02:29:00.009Z,24.30
2022-12-13T02:31:44.750Z,23.40
2022-12-13T02:34:22.633Z,22.37
2022-12-13T02:37:26.938Z,22.17
2022-12-13T02:40:15.703Z,22.10
2022-12-13T02:43:00.271Z,22.87
2022-12-13T02:45:34.693Z,22.20
2022-12-13T02:48:04.853Z,22.30
2022-12-13T02:50:32.593Z,20.52
2022-12-13T02:53:00.010Z,20.50
2022-12-13T02:55:28.335Z,20.47
2022-12-13T02:57:55.479Z,20.13
2022-12-13T03:00:30.852Z,20.17
2022-12-13T03:03:22.978Z,21.13
2022-12-13T03:06:14.768Z,21.20
2022-12-13T03:08:47.044Z,20.10
2022-12-13T03:11:18.778Z,18.30
2022-12-13T03:14:02.655Z,17.80
2022-12-13T03:16:35.126Z,16.77
2022-12-13T03:19:04.752Z,16.80
2022-12-13T03:21:48.530Z,14.10
2022-12-13T03:24:20.517Z,13.27
2022-12-13T03:26:49.569Z,12.83
2022-12-13T03:29:24.321Z,12.87
2022-12-13T03:31:51.969Z,13.83
2022-12-13T03:34:22.856Z,14.00
2022-12-13T03:36:52.045Z,12.83
2022-12-13T03:39:19.912Z,12.67
2022-12-13T03:41:46.793Z,13.37
2022-12-13T03:44:13.361Z,13.43
2022-12-13T03:46:39.819Z,13.73
2022-12-13T03:49:06.205Z,13.57
2022-12-13T03:51:32.779Z,14.17
2022-12-13T03:53:59.245Z,12.90
2022-12-13T03:56:25.828Z,14.43
2022-12-13T03:58:52.222Z,13.03
2022-12-13T04:01:18.636Z,13.03
2022-12-13T04:03:47.302Z,13.57
2022-12-13T04:06:21.975Z,13.13
2022-12-13T04:08:51.142Z,12.87
2022-12-13T04:11:17.823Z,13.60
2022-12-13T04:13:44.206Z,12.50
2022-12-13T04:16:10.667Z,13.17
2022-12-13T04:18:37.303Z,12.80
2022-12-13T04:21:03.809Z,13.80
2022-12-13T04:23:30.241Z,13.17
2022-12-13T04:25:56.985Z,13.07
2022-12-13T04:28:23.489Z,13.57
2022-12-13T04:30:53.290Z,13.30
2022-12-13T04:33:23.898Z,14.43
2022-12-13T04:35:50.753Z,12.48
2022-12-13T04:38:17.568Z,13.17
2022-12-13T04:40:44.172Z,12.73
2022-12-13T04:43:10.837Z,12.10
2022-12-13T04:45:37.354Z,12.97
2022-12-13T04:48:04.172Z,11.67
2022-12-13T04:50:30.747Z,11.57
2022-12-13T04:52:57.131Z,12.23
2022-12-13T04:55:23.504Z,12.87
2022-12-13T04:57:49.956Z,12.63
2022-12-13T05:00:16.869Z,12.47
2022-12-13T05:02:43.234Z,12.57
2022-12-13T05:05:10.143Z,11.97
2022-12-13T05:07:42.227Z,12.40
2022-12-13T05:10:10.432Z,12.57
2022-12-13T05:12:36.908Z,12.73
2022-12-13T05:15:03.635Z,11.80
2022-12-13T05:17:30.262Z,10.77
2022-12-13T05:19:56.578Z,10.63
2022-12-13T05:22:22.973Z,10.57
2022-12-13T05:24:49.480Z,11.50
2022-12-13T05:27:24.682Z,9.83
2022-12-13T05:30:02.904Z,9.17
2022-12-13T05:32:43.524Z,11.70
2022-12-13T05:35:23.012Z,10.40
2022-12-13T05:37:53.950Z,11.70
2022-12-13T05:40:21.966Z,10.87
2022-12-13T05:42:48.622Z,11.10
2022-12-13T05:45:17.483Z,11.33
2022-12-13T05:47:44.143Z,10.27
2022-12-13T05:50:14.904Z,11.40
2022-12-13T05:55:09.204Z,9.60
2022-12-13T05:57:36.087Z,9.97
2022-12-13T06:00:04.093Z,10.13
2022-12-13T06:02:30.699Z,11.80
2022-12-13T06:04:57.257Z,10.60
2022-12-13T06:07:23.687Z,12.00
2022-12-13T06:09:50.275Z,11.37
2022-12-13T06:12:32.306Z,10.73
2022-12-13T06:15:21.560Z,12.27
2022-12-13T06:17:45.744Z,12.07
2022-12-13T06:20:24.438Z,12.00
2022-12-13T06:22:52.455Z,11.57
2022-12-13T06:25:31.345Z,11.37
2022-12-13T06:28:01.786Z,11.80
2022-12-13T06:30:31.119Z,11.60
2022-12-13T06:32:57.738Z,11.03
2022-12-13T06:35:28.121Z,11.73
2022-12-13T06:38:01.178Z,11.27
2022-12-13T06:40:28.384Z,12.30
2022-12-13T06:42:54.683Z,10.80
2022-12-13T06:45:21.092Z,11.27
2022-12-13T06:47:47.712Z,10.43
2022-12-13T06:50:14.100Z,11.57
2022-12-13T06:52:40.671Z,11.90
2022-12-13T06:55:07.564Z,10.77
2022-12-13T06:57:34.103Z,11.20
2022-12-13T07:00:03.703Z,11.80
2022-12-13T07:02:30.302Z,10.87
2022-12-13T07:04:57.307Z,11.20
2022-12-13T07:07:25.121Z,12.10
2022-12-13T07:09:52.121Z,11.93
2022-12-13T07:12:18.516Z,12.40
2022-12-13T07:14:45.005Z,10.63
2022-12-13T07:17:11.600Z,10.73
2022-12-13T07:19:38.174Z,11.50
2022-12-13T07:22:04.841Z,12.17
2022-12-13T07:24:31.741Z,10.67
2022-12-13T07:26:58.287Z,11.13
2022-12-13T07:29:24.849Z,11.93
2022-12-13T07:31:51.235Z,12.03
2022-12-13T07:34:17.793Z,11.70
2022-12-13T07:36:44.153Z,12.37
2022-12-13T07:39:10.500Z,11.97
2022-12-13T07:41:36.907Z,11.77
2022-12-13T07:44:03.442Z,11.87
2022-12-13T07:46:33.314Z,12.93
2022-12-13T07:49:04.274Z,13.05
2022-12-13T07:51:32.744Z,14.32
2022-12-13T07:53:59.143Z,12.27
2022-12-13T07:56:25.823Z,13.10
2022-12-13T07:58:52.106Z,13.63
2022-12-13T08:01:18.682Z,13.97
2022-12-13T08:03:47.872Z,13.07
2022-12-13T08:06:14.772Z,12.07
2022-12-13T08:08:41.212Z,13.50
2022-12-13T08:11:13.049Z,13.73
2022-12-13T08:13:40.045Z,14.80
2022-12-13T08:16:26.700Z,13.83
2022-12-13T08:19:01.737Z,15.20
2022-12-13T08:21:58.267Z,13.53
2022-12-13T08:24:29.881Z,15.40
2022-12-13T08:26:59.037Z,15.13
2022-12-13T08:29:33.245Z,14.67
2022-12-13T08:32:04.251Z,14.07
2022-12-13T08:34:30.690Z,14.13
2022-12-13T08:37:02.911Z,13.33
2022-12-13T08:39:34.323Z,13.90
2022-12-13T08:42:14.836Z,15.63
2022-12-13T08:44:44.068Z,14.47
2022-12-13T08:47:10.687Z,13.27
2022-12-13T08:49:37.112Z,13.73
2022-12-13T08:52:03.786Z,12.57
2022-12-13T08:54:33.351Z,12.30
2022-12-13T08:57:00.019Z,14.30
2022-12-13T08:59:26.354Z,16.50
2022-12-13T09:01:53.956Z,14.23
2022-12-13T09:04:31.349Z,15.30
2022-12-13T09:07:01.566Z,14.20
2022-12-13T09:09:29.303Z,14.07
2022-12-13T09:11:59.727Z,14.20
2022-12-13T09:14:27.091Z,13.88
2022-12-13T09:17:02.755Z,12.93
2022-12-13T09:19:37.238Z,13.20
2022-12-13T09:22:05.281Z,13.13
2022-12-13T09:24:36.688Z,12.30
2022-12-13T09:27:09.665Z,13.23
2022-12-13T09:29:37.287Z,12.50
2022-12-13T09:32:03.940Z,12.60
2022-12-13T09:34:30.581Z,12.60
2022-12-13T09:37:01.753Z,12.73
2022-12-13T09:39:28.849Z,12.60
2022-12-13T09:42:01.127Z,11.57
2022-12-13T09:44:45.100Z,11.80
2022-12-13T09:47:25.808Z,12.03
2022-12-13T09:49:53.783Z,13.57
2022-12-13T09:52:24.349Z,12.87
2022-12-13T09:54:56.745Z,12.45
2022-12-13T09:57:30.854Z,12.50
2022-12-13T10:00:00.229Z,12.67
2022-12-13T10:02:30.647Z,12.93
2022-12-13T10:05:34.312Z,12.10
2022-12-13T10:08:15.210Z,11.67
2022-12-13T10:10:42.435Z,12.07
2022-12-13T10:13:40.114Z,11.83
2022-12-13T10:16:16.128Z,11.70
2022-12-13T10:18:52.820Z,11.13
2022-12-13T10:21:25.523Z,11.90
2022-12-13T10:24:23.253Z,12.70
2022-12-13T10:26:39.235Z,11.73
2022-12-13T10:29:07.239Z,11.60
2022-12-13T10:31:46.028Z,11.77
2022-12-13T10:34:34.812Z,10.40
2022-12-13T10:37:23.038Z,11.40
2022-12-13T10:39:50.210Z,11.00
2022-12-13T10:42:26.798Z,9.30
2022-12-13T10:45:16.309Z,9.55
2022-12-13T10:47:50.507Z,9.83
2022-12-13T10:50:27.176Z,10.03
2022-12-13T10:52:54.911Z,10.97
2022-12-13T10:55:36.066Z,10.27
2022-12-13T10:58:05.694Z,10.93
2022-12-13T11:00:35.033Z,10.73
2022-12-13T11:03:01.694Z,10.43
2022-12-13T11:05:33.978Z,9.20
2022-12-13T11:08:32.970Z,9.60
2022-12-13T11:11:02.027Z,9.57
2022-12-13T11:13:35.185Z,10.20
2022-12-13T11:16:01.805Z,10.40
2022-12-13T11:18:36.233Z,10.10
2022-12-13T11:21:05.335Z,10.27
2022-12-13T11:23:36.924Z,9.80
2022-12-13T11:26:10.975Z,9.23
2022-12-13T11:28:54.626Z,9.20
2022-12-13T11:31:32.160Z,9.57
2022-12-13T11:34:26.739Z,9.87
2022-12-13T11:37:00.057Z,8.73
2022-12-13T11:39:47.289Z,9.67
2022-12-13T11:42:28.842Z,9.80
2022-12-13T11:45:13.672Z,10.37
2022-12-13T11:47:59.610Z,10.13
2022-12-13T11:50:41.875Z,9.70
2022-12-13T11:53:54.953Z,9.70
2022-12-13T11:56:42.385Z,8.93
2022-12-13T11:59:39.756Z,9.27
2022-12-13T12:02:33.302Z,9.90
2022-12-13T12:05:06.124Z,9.30
2022-12-13T12:08:12.827Z,10.30
2022-12-13T12:10:47.477Z,9.43
2022-12-13T12:13:23.518Z,10.00
2022-12-13T12:16:20.826Z,9.07
2022-12-13T12:18:47.228Z,9.00
2022-12-13T12:22:13.388Z,9.00
2022-12-13T12:25:02.199Z,9.37
2022-12-13T12:27:40.568Z,9.67
2022-12-13T12:30:22.864Z,8.40
2022-12-13T12:33:21.175Z,9.73
2022-12-13T12:36:20.076Z,8.80
2022-12-13T12:38:52.516Z,8.43
2022-12-13T12:41:43.567Z,10.43
2022-12-13T12:44:49.024Z,9.00
2022-12-13T12:51:00.940Z,8.40
2022-12-13T12:54:03.594Z,8.10
2022-12-13T12:56:45.381Z,8.93
2022-12-13T12:59:26.236Z,9.17
2022-12-13T13:02:21.793Z,8.93
2022-12-13T13:04:55.411Z,9.17
2022-12-13T13:07:32.063Z,9.20
2022-12-13T13:10:16.716Z,7.90
2022-12-13T13:13:12.373Z,9.83
2022-12-13T13:15:40.248Z,8.20
2022-12-13T13:18:45.068Z,8.17
2022-12-13T13:21:23.807Z,8.03
2022-12-13T13:24:02.318Z,8.77
2022-12-13T13:26:35.899Z,9.47
2022-12-13T13:29:27.544Z,7.80
2022-12-13T13:32:10.066Z,7.63
2022-12-13T13:34:45.096Z,8.17
2022-12-13T13:37:23.719Z,7.83
2022-12-13T13:39:52.855Z,8.63
2022-12-13T13:42:24.794Z,9.33
2022-12-13T13:44:51.299Z,8.87
2022-12-13T13:47:20.965Z,9.80
2022-12-13T13:50:12.209Z,10.17
2022-12-13T13:52:44.558Z,11.40
2022-12-13T13:55:47.969Z,10.37
2022-12-13T13:58:48.152Z,11.07
2022-12-13T14:01:45.800Z,7.05
2022-12-13T14:04:53.430Z,9.93
2022-12-13T14:07:38.580Z,9.63
2022-12-13T14:10:13.891Z,8.80
2022-12-13T14:12:53.483Z,9.43
2022-12-13T14:15:31.784Z,8.47
2022-12-13T14:18:44.624Z,10.10
2022-12-13T14:21:27.969Z,9.07
2022-12-13T14:24:02.747Z,8.30
2022-12-13T14:26:51.695Z,8.67
2022-12-13T14:29:24.230Z,8.87
2022-12-13T14:31:51.022Z,7.93
2022-12-13T14:34:23.953Z,8.77
2022-12-13T14:37:00.886Z,9.10
2022-12-13T14:39:28.761Z,9.30
2022-12-13T14:41:59.524Z,9.27
2022-12-13T14:44:32.110Z,9.02
2022-12-13T14:47:01.254Z,10.03
2022-12-13T14:49:31.154Z,11.13
2022-12-13T14:52:03.093Z,12.10
2022-12-13T14:54:41.064Z,11.87
2022-12-13T14:57:16.266Z,10.20
2022-12-13T14:59:50.989Z,10.57
2022-12-13T15:02:31.101Z,12.87
2022-12-13T15:07:41.616Z,11.00
2022-12-13T15:10:21.453Z,13.23
2022-12-13T15:12:48.930Z,11.57
2022-12-13T15:15:28.841Z,10.70
2022-12-13T15:18:10.479Z,11.43
2022-12-13T15:20:42.129Z,11.57
2022-12-13T15:23:31.378Z,11.17
2022-12-13T15:25:58.058Z,10.73
2022-12-13T15:28:29.647Z,14.03
2022-12-13T15:30:59.249Z,11.70
2022-12-13T15:33:34.165Z,9.43
2022-12-13T15:36:06.262Z,10.33
2022-12-13T15:38:33.880Z,9.30
2022-12-13T15:41:00.503Z,9.03
2022-12-13T15:43:38.157Z,9.77
2022-12-13T15:46:05.366Z,9.80
2022-12-13T15:48:35.874Z,8.67
2022-12-13T15:51:08.923Z,10.48
2022-12-13T15:53:36.920Z,10.63
2022-12-13T15:56:31.232Z,9.40
2022-12-13T15:58:58.739Z,8.63
2022-12-13T16:01:30.374Z,9.43
2022-12-13T16:03:57.137Z,8.73
2022-12-13T16:06:26.051Z,9.30
2022-12-13T16:08:56.617Z,7.57
2022-12-13T16:11:36.011Z,10.32
2022-12-13T16:14:30.511Z,9.27
2022-12-13T16:17:13.318Z,9.87
2022-12-13T16:19:40.062Z,9.30
2022-12-13T16:22:08.628Z,10.37
2022-12-13T16:24:35.705Z,11.13
2022-12-13T16:27:08.468Z,10.93
2022-12-13T16:29:36.040Z,11.20
2022-12-13T16:32:08.851Z,10.60
2022-12-13T16:34:35.917Z,11.60
2022-12-13T16:37:02.505Z,10.50
2022-12-13T16:39:35.014Z,10.43
2022-12-13T16:42:01.414Z,10.30
2022-12-13T16:44:35.965Z,10.57
2022-12-13T16:47:15.372Z,10.83
2022-12-13T16:49:45.280Z,10.43
2022-12-13T16:52:11.724Z,11.57
2022-12-13T16:54:38.099Z,11.30
2022-12-13T16:57:04.503Z,11.80
2022-12-13T16:59:30.853Z,11.10
2022-12-13T17:01:57.550Z,12.50
2022-12-13T17:04:24.951Z,11.63
2022-12-13T17:06:54.959Z,11.00
2022-12-13T17:09:23.079Z,13.05
2022-12-13T17:11:49.537Z,11.80
2022-12-13T17:14:16.107Z,11.93
2022-12-13T17:16:42.895Z,13.03
2022-12-13T17:19:12.298Z,12.57
2022-12-13T17:21:38.694Z,12.13
2022-12-13T17:24:05.302Z,12.37
2022-12-13T17:26:31.728Z,13.37
2022-12-13T17:28:58.404Z,12.73
2022-12-13T17:31:25.320Z,12.07
2022-12-13T17:33:56.942Z,12.77
2022-12-13T17:36:23.469Z,13.60
2022-12-13T17:38:49.848Z,13.53
2022-12-13T17:41:16.807Z,13.83
2022-12-13T17:43:43.946Z,12.73
2022-12-13T17:46:15.835Z,14.50
2022-12-13T17:48:42.884Z,12.67
2022-12-13T17:51:11.219Z,13.73
2022-12-13T17:53:42.169Z,14.10
2022-12-13T17:56:10.905Z,12.60
2022-12-13T17:58:38.003Z,13.27
2022-12-13T18:01:16.371Z,13.13
2022-12-13T18:03:43.003Z,13.90
2022-12-13T18:06:09.671Z,14.37
2022-12-13T18:08:38.048Z,14.13
2022-12-13T18:11:31.956Z,13.20
2022-12-13T18:13:54.927Z,13.27
2022-12-13T18:16:23.988Z,11.25
2022-12-13T18:18:55.206Z,12.47
2022-12-13T18:21:22.537Z,13.07
2022-12-13T18:23:55.389Z,13.07
2022-12-13T18:26:24.160Z,12.47
2022-12-13T18:28:50.890Z,13.37
2022-12-13T18:31:20.757Z,14.87
2022-12-13T18:33:49.675Z,13.32
2022-12-13T18:36:18.628Z,12.83
2022-12-13T18:41:32.026Z,13.57
2022-12-13T18:44:00.967Z,13.23
2022-12-13T18:46:32.779Z,14.30
2022-12-13T18:48:59.484Z,14.70
2022-12-13T18:51:26.196Z,13.57
2022-12-13T18:53:53.259Z,13.37
2022-12-13T18:56:19.849Z,13.87
2022-12-13T18:58:47.593Z,13.30
2022-12-13T19:01:14.646Z,13.93
2022-12-13T19:03:43.127Z,14.27
2022-12-13T19:06:14.205Z,13.03
2022-12-13T19:08:40.705Z,13.47
2022-12-13T19:11:07.402Z,13.63
2022-12-13T19:13:33.924Z,14.10
2022-12-13T19:16:09.307Z,13.13
2022-12-13T19:18:36.680Z,13.07
2022-12-13T19:21:06.926Z,12.77
2022-12-13T19:23:35.325Z,12.97
2022-12-13T19:26:06.301Z,13.90
2022-12-13T19:28:33.345Z,13.67
2022-12-13T19:31:03.738Z,13.90
2022-12-13T19:33:30.755Z,14.30
2022-12-13T19:35:57.434Z,13.20
2022-12-13T19:38:23.935Z,14.13
2022-12-13T19:40:50.660Z,13.87
2022-12-13T19:43:17.191Z,13.43
2022-12-13T19:45:45.380Z,13.47
2022-12-13T19:48:12.837Z,14.80
2022-12-13T19:50:39.976Z,13.57
2022-12-13T19:53:08.023Z,11.90
2022-12-13T19:55:35.016Z,12.93
2022-12-13T19:58:01.984Z,12.60
2022-12-13T20:00:28.448Z,14.43
2022-12-13T20:02:55.206Z,12.63
2022-12-13T20:05:21.627Z,13.53
2022-12-13T20:07:48.027Z,13.87
2022-12-13T20:10:15.254Z,12.90
2022-12-13T20:12:41.600Z,13.07
2022-12-13T20:15:08.580Z,13.33
2022-12-13T20:17:35.613Z,12.63
2022-12-13T20:20:02.214Z,13.30
2022-12-13T20:22:29.552Z,13.00
2022-12-13T20:24:56.056Z,14.03
2022-12-13T20:27:22.813Z,13.97
2022-12-13T20:29:49.224Z,13.53
2022-12-13T20:32:16.677Z,12.57
2022-12-13T20:34:43.026Z,12.50
2022-12-13T20:37:09.455Z,13.33
2022-12-13T20:39:35.907Z,13.93
2022-12-13T20:42:02.519Z,13.90
2022-12-13T20:44:30.629Z,13.73
2022-12-13T20:46:57.138Z,15.20
2022-12-13T20:49:23.529Z,13.97
2022-12-13T20:51:50.079Z,13.27
2022-12-13T20:54:16.642Z,13.90
2022-12-13T20:56:43.123Z,14.67
2022-12-13T20:59:12.693Z,12.20
2022-12-13T21:01:40.676Z,12.30
2022-12-13T21:04:09.521Z,13.60
2022-12-13T21:06:37.583Z,13.83
2022-12-13T21:09:05.477Z,12.47
2022-12-13T21:11:34.564Z,13.53
2022-12-13T21:14:10.216Z,13.83
2022-12-13T21:16:46.663Z,13.40
2022-12-13T21:19:15.897Z,13.20
2022-12-13T21:21:42.814Z,14.70
2022-12-13T21:24:13.348Z,13.40
2022-12-13T21:26:39.741Z,13.05
2022-12-13T21:29:07.741Z,13.83
2022-12-13T21:31:35.828Z,13.63
2022-12-13T21:34:03.131Z,14.17
2022-12-13T21:36:35.210Z,14.10
2022-12-13T21:39:05.978Z,13.03
2022-12-13T21:44:00.633Z,14.10
2022-12-13T21:46:54.847Z,13.77
2022-12-13T21:49:15.340Z,12.60
2022-12-13T21:51:47.420Z,12.80
2022-12-13T21:54:14.466Z,12.60
2022-12-13T21:56:40.840Z,11.20
2022-12-13T21:59:13.956Z,13.60
2022-12-13T22:01:58.576Z,13.03
2022-12-13T22:04:25.004Z,13.00
2022-12-13T22:06:51.496Z,12.43
2022-12-13T22:09:17.817Z,13.03
2022-12-13T22:11:44.364Z,14.47
2022-12-13T22:14:10.763Z,13.13
2022-12-13T22:16:37.993Z,11.93
2022-12-13T22:19:04.581Z,13.27
2022-12-13T22:21:31.678Z,13.50
2022-12-13T22:23:58.374Z,12.97
2022-12-13T22:26:25.808Z,11.97
2022-12-13T22:28:52.813Z,13.23
2022-12-13T22:31:19.667Z,14.40
2022-12-13T22:33:46.300Z,12.93
2022-12-13T22:36:12.799Z,13.30
2022-12-13T22:38:39.207Z,12.83
2022-12-13T22:41:08.561Z,12.83
2022-12-13T22:43:36.428Z,12.63
2022-12-13T22:46:05.010Z,13.30
2022-12-13T22:48:32.261Z,13.40
2022-12-13T22:51:03.194Z,12.40
2022-12-13T22:53:30.142Z,13.20
2022-12-13T22:56:09.934Z,12.47
2022-12-13T22:58:37.945Z,12.17
2022-12-13T23:01:17.177Z,12.23
2022-12-13T23:03:44.885Z,11.80
2022-12-13T23:06:14.595Z,11.80
2022-12-13T23:08:43.666Z,12.43
2022-12-13T23:11:11.827Z,11.53
2022-12-13T23:13:38.323Z,11.73
2022-12-13T23:16:06.168Z,13.10
2022-12-13T23:18:32.626Z,12.53
2022-12-13T23:20:59.041Z,12.50
2022-12-13T23:23:25.489Z,11.87
2022-12-13T23:25:52.251Z,12.53
2022-12-13T23:28:18.788Z,12.90
2022-12-13T23:30:45.257Z,12.77
2022-12-13T23:33:11.673Z,11.63
2022-12-13T23:35:38.084Z,12.97
2022-12-13T23:38:04.705Z,12.00
2022-12-13T23:40:31.290Z,12.27
2022-12-13T23:42:57.690Z,12.87
2022-12-13T23:45:24.141Z,12.73
2022-12-13T23:47:50.682Z,11.97
2022-12-13T23:50:17.225Z,12.23
2022-12-13T23:52:43.573Z,12.63
2022-12-13T23:55:10.182Z,11.83
2022-12-13T23:57:36.589Z,11.77
